Wind Star — C6CA9 — position and weather

sailwx.info

Track history (hours):
 
Tides and Currents Weather Stations Pressure Air Temp Water Temp Dewpoint Dewpoint Depression Visibility Wind Speed Wind Dir Waves Ship Positions

Wind Star

Operator: Holland America Line

Last reported at 2017-Sep-18 18:34 UTC. Time now 2017-Sep-22 06:36 UTC.
Position N 37°42' E 025°47'.

Length 134 m; draft 4.1 m.

Type: Ship. MMSI: 309163000.

Date/timePositionNaut miles runAvg speedWind from/ knotsBaromVisibWave heightAir tempDewpointWater temp
2017-Sep-18 18:34N 37°42' E 025°47'1 8.8
2017-Sep-18 18:28N 37°41' E 025°46'4 8.5
2017-Sep-18 18:00N 37°39' E 025°41'4 8.1
2017-Sep-18 17:31N 37°38' E 025°37'4 8.0
2017-Sep-18 17:00N 37°36' E 025°32'4 7.8
2017-Sep-18 16:31N 37°35' E 025°28'4 7.8
2017-Sep-18 16:00N 37°33' E 025°23'4 7.6
2017-Sep-18 15:30N 37°31' E 025°19'3 6.8
2017-Sep-18 15:00N 37°27' E 025°19'1 1.7
2017-Sep-18 14:30N 37°27' E 025°19'0 0.0
2017-Sep-18 13:58N 37°27' E 025°19'0 0.0
2017-Sep-18 13:28N 37°27' E 025°19'0 0.0
2017-Sep-18 12:58N 37°27' E 025°19'0 0.0
2017-Sep-18 12:19N 37°27' E 025°19'0 0.0
2017-Sep-18 11:58N 37°27' E 025°19'0 0.0
2017-Sep-18 11:25N 37°27' E 025°19'0 0.0
2017-Sep-18 10:55N 37°27' E 025°19'0 0.0
2017-Sep-18 10:25N 37°27' E 025°19'0 0.0
2017-Sep-18 09:58N 37°27' E 025°19'0 0.0
2017-Sep-18 09:28N 37°27' E 025°19'0 0.0
2017-Sep-18 08:55N 37°27' E 025°19'0 0.0
2017-Sep-18 08:28N 37°27' E 025°19'0 0.0
2017-Sep-18 07:58N 37°27' E 025°19'0 0.0
2017-Sep-18 07:28N 37°27' E 025°19'0 0.0
2017-Sep-18 06:55N 37°27' E 025°19'0 0.0
2017-Sep-18 06:19N 37°27' E 025°19'0 0.0
2017-Sep-18 05:58N 37°27' E 025°19'0 0.0
2017-Sep-18 05:28N 37°27' E 025°19'0 0.0
2017-Sep-18 04:58N 37°27' E 025°19'0 0.0
2017-Sep-18 04:26N 37°27' E 025°19'2 4.5
2017-Sep-18 04:00N 37°27' E 025°17'4 7.9
2017-Sep-18 03:30N 37°27' E 025°12'4 7.5
2017-Sep-18 03:00N 37°25' E 025°08'4 7.8
2017-Sep-18 02:30N 37°23' E 025°03'4 7.9
2017-Sep-18 02:00N 37°22' E 024°59'4 8.1
2017-Sep-18 01:30N 37°20' E 024°55'5 9.4
2017-Sep-18 01:00N 37°19' E 024°49'5110.3
2017-Sep-17 20:02N 37°11' E 023°45'110.4
2017-Sep-17 19:59N 37°11' E 023°45'510.4
2017-Sep-17 19:30N 37°11' E 023°38'710.4
2017-Sep-17 18:49N 37°10' E 023°30'8 0.4
2017-Sep-16 22:17N 37°09' E 023°20'2 7.2
2017-Sep-16 21:58N 37°09' E 023°22'5 7.8
2017-Sep-16 21:23N 37°09' E 023°28'3 8.1
2017-Sep-16 21:00N 37°10' E 023°32'4 7.9
2017-Sep-16 20:30N 37°13' E 023°35'4 7.6
2017-Sep-16 20:00N 37°16' E 023°38'4 7.7
2017-Sep-16 19:30N 37°19' E 023°41'4 7.6
2017-Sep-16 19:00N 37°23' E 023°42'4 7.6
2017-Sep-16 18:30N 37°27' E 023°42'4 7.6
2017-Sep-16 18:00N 37°31' E 023°42'5 7.5
2017-Sep-16 17:19N 37°36' E 023°42'2 7.5
2017-Sep-16 17:00N 37°38' E 023°42'4 7.1
2017-Sep-16 16:30N 37°41' E 023°40'4 7.2
2017-Sep-16 16:00N 37°45' E 023°39'4 7.1
2017-Sep-16 15:30N 37°48' E 023°38'3 6.7
2017-Sep-16 15:00N 37°51' E 023°37'3 6.6
2017-Sep-16 14:30N 37°55' E 023°37'2 3.9
2017-Sep-16 14:00N 37°56' E 023°38'0 0.0
2017-Sep-16 13:30N 37°56' E 023°38'0 0.0
2017-Sep-16 13:00N 37°56' E 023°38'0 0.0
2017-Sep-16 12:30N 37°56' E 023°38'0 0.0
2017-Sep-16 12:00N 37°56' E 023°38'0 0.0
2017-Sep-16 11:30N 37°56' E 023°38'0 0.0
2017-Sep-16 11:00N 37°56' E 023°38'0 0.0
2017-Sep-16 10:30N 37°56' E 023°38'0 0.0
2017-Sep-16 10:00N 37°56' E 023°38'0 0.0
2017-Sep-16 09:30N 37°56' E 023°38'0 0.0
2017-Sep-16 09:00N 37°56' E 023°38'0 0.0
2017-Sep-16 08:30N 37°56' E 023°38'0 0.0
2017-Sep-16 08:00N 37°56' E 023°38'0 0.0
2017-Sep-16 07:30N 37°56' E 023°38'0 0.0
2017-Sep-16 07:00N 37°56' E 023°38'0 0.0
2017-Sep-16 06:27N 37°56' E 023°38'0 0.0
2017-Sep-16 06:00N 37°56' E 023°38'0 0.0
2017-Sep-16 05:30N 37°56' E 023°38'0 0.0
2017-Sep-16 05:00N 37°56' E 023°38'0 0.0
2017-Sep-16 04:30N 37°56' E 023°38'0 0.0
2017-Sep-16 04:00N 37°56' E 023°38'1 1.6
2017-Sep-16 03:30N 37°56' E 023°37'2 4.4
2017-Sep-16 03:00N 37°54' E 023°37'3 6.7
2017-Sep-16 02:30N 37°51' E 023°39'3 6.3
2017-Sep-16 02:00N 37°48' E 023°40'3 6.5
2017-Sep-16 01:30N 37°45' E 023°42'3 6.3
2017-Sep-16 01:00N 37°42' E 023°44'3 6.0
2017-Sep-16 00:30N 37°40' E 023°45'3 6.1
2017-Sep-16 00:00N 37°37' E 023°46'3 6.3
2017-Sep-15 23:30N 37°33' E 023°46'3 6.1
2017-Sep-15 23:00N 37°30' E 023°47'6 6.6
2017-Sep-15 22:06N 37°25' E 023°44'1 6.6
2017-Sep-15 22:00N 37°24' E 023°44'3 6.8
2017-Sep-15 21:30N 37°21' E 023°41'3 6.5
2017-Sep-15 21:00N 37°19' E 023°39'3 6.7
2017-Sep-15 20:30N 37°16' E 023°36'3 6.7
2017-Sep-15 20:00N 37°13' E 023°34'3 6.7
2017-Sep-15 19:30N 37°11' E 023°31'5 7.4
2017-Sep-15 18:52N 37°07' E 023°28'35 2.4
2017-Sep-15 03:55N 36°35' E 023°45'6 7.7
2017-Sep-15 03:11N 36°32' E 023°51'1 8.5
2017-Sep-15 03:00N 36°31' E 023°53'  
2017-Sep-11 19:05N 37°43' E 025°50'2 8.4
2017-Sep-11 18:52N 37°42' E 025°48'3 8.1
2017-Sep-11 18:30N 37°41' E 025°45'4 7.9
2017-Sep-11 18:00N 37°39' E 025°40'4 8.1
2017-Sep-11 17:30N 37°38' E 025°36'4 8.3
2017-Sep-11 17:00N 37°36' E 025°31'4 8.5
2017-Sep-11 16:30N 37°34' E 025°26'4 8.4
2017-Sep-11 16:00N 37°32' E 025°21'4 7.8
2017-Sep-11 15:30N 37°30' E 025°17'3 5.8
2017-Sep-11 14:56N 37°27' E 025°19'0 0.0
2017-Sep-11 14:26N 37°27' E 025°19'0 0.0
2017-Sep-11 13:59N 37°27' E 025°19'0 0.0
2017-Sep-11 13:23N 37°27' E 025°19'0 0.0
2017-Sep-11 12:50N 37°27' E 025°19'0 0.0
2017-Sep-11 12:29N 37°27' E 025°19'0 0.0
2017-Sep-11 11:41N 37°27' E 025°19'0 0.1
2017-Sep-11 11:29N 37°27' E 025°19'0 0.0
2017-Sep-11 10:59N 37°27' E 025°19'0 0.0
2017-Sep-11 10:26N 37°27' E 025°19'0 0.0
2017-Sep-11 09:59N 37°27' E 025°19'0 0.0
2017-Sep-11 09:29N 37°27' E 025°19'0 0.0
2017-Sep-11 08:59N 37°27' E 025°19'0 0.0
2017-Sep-11 08:17N 37°27' E 025°19'0 0.0
2017-Sep-11 07:53N 37°27' E 025°19'0 0.0
2017-Sep-11 07:29N 37°27' E 025°19'0 0.0
2017-Sep-11 06:50N 37°27' E 025°19'0 0.0
2017-Sep-11 06:26N 37°27' E 025°19'0 0.0
2017-Sep-11 05:59N 37°27' E 025°19'0 0.0
2017-Sep-11 05:11N 37°27' E 025°19'0 0.1
2017-Sep-11 04:59N 37°27' E 025°19'0 0.0
2017-Sep-11 04:26N 37°27' E 025°19'0 0.1
2017-Sep-11 04:00N 37°27' E 025°19'3 5.8
2017-Sep-11 03:30N 37°27' E 025°15'4 7.9
2017-Sep-11 03:00N 37°27' E 025°11'4 7.8
2017-Sep-11 02:30N 37°25' E 025°06'4 7.8
2017-Sep-11 01:59N 37°23' E 025°02'4 7.4
2017-Sep-11 01:30N 37°21' E 024°58'4 7.4
2017-Sep-11 01:00N 37°19' E 024°54'4 7.9
2017-Sep-11 00:30N 37°19' E 024°49'7110.7
2017-Sep-10 17:52N 37°09' E 023°21'36 3.8
2017-Sep-10 08:22N 37°34' E 022°47'0 0.0
2017-Sep-10 07:16N 37°34' E 022°47'0 0.0
2017-Sep-10 06:40N 37°34' E 022°47'0 0.0
2017-Sep-10 06:22N 37°34' E 022°47'0 0.0
2017-Sep-10 04:58N 37°34' E 022°47'0 0.0
2017-Sep-10 04:16N 37°34' E 022°47'7 4.8
2017-Sep-10 02:50N 37°27' E 022°50'12 6.5
2017-Sep-10 00:58N 37°17' E 022°58'11 6.4
2017-Sep-09 23:16N 37°09' E 023°07'3 7.5
2017-Sep-09 22:50N 37°09' E 023°11'4 7.0
2017-Sep-09 22:16N 37°09' E 023°16'2 7.1
2017-Sep-09 22:00N 37°09' E 023°19'4 6.9
2017-Sep-09 21:28N 37°09' E 023°23'3 6.8
2017-Sep-09 21:00N 37°10' E 023°27'3 6.9
2017-Sep-09 20:30N 37°12' E 023°31'3 6.1
2017-Sep-09 19:56N 37°14' E 023°35'6 7.5
2017-Sep-09 19:11N 37°18' E 023°39'2 8.2
2017-Sep-09 18:58N 37°20' E 023°40'4 8.1
2017-Sep-09 18:30N 37°23' E 023°42'6 8.4
2017-Sep-09 17:47N 37°29' E 023°42'3 8.9
2017-Sep-09 17:30N 37°32' E 023°42'5 9.1
2017-Sep-09 17:00N 37°36' E 023°42'4 8.8
2017-Sep-09 16:30N 37°41' E 023°41'4 9.0
2017-Sep-09 16:00N 37°45' E 023°40'4 8.6
2017-Sep-09 15:30N 37°49' E 023°38'4 7.4
2017-Sep-09 15:00N 37°52' E 023°36'4 7.6
2017-Sep-09 14:31N 37°56' E 023°37'1 1.8
2017-Sep-09 14:00N 37°56' E 023°38'0 0.0
2017-Sep-09 13:30N 37°56' E 023°38'0 0.0
2017-Sep-09 13:00N 37°56' E 023°38'0 0.0
2017-Sep-09 12:30N 37°56' E 023°38'0 0.0
2017-Sep-09 12:00N 37°56' E 023°38'0 0.0
2017-Sep-09 11:30N 37°56' E 023°38'0 0.0
2017-Sep-09 11:00N 37°56' E 023°38'0 0.0
2017-Sep-09 10:30N 37°56' E 023°38'0 0.0
2017-Sep-09 10:00N 37°56' E 023°38'0 0.0
2017-Sep-09 09:30N 37°56' E 023°38'0 0.0
2017-Sep-09 09:00N 37°56' E 023°38'0 0.0
2017-Sep-09 08:30N 37°56' E 023°38'0 0.0
2017-Sep-09 08:00N 37°56' E 023°38'0 0.0
2017-Sep-09 07:30N 37°56' E 023°38'0 0.0
2017-Sep-09 07:00N 37°56' E 023°38'0 0.0
2017-Sep-09 06:30N 37°56' E 023°38'0 0.0
2017-Sep-09 06:00N 37°56' E 023°38'0 0.0
2017-Sep-09 05:30N 37°56' E 023°38'0 0.0
2017-Sep-09 05:00N 37°56' E 023°38'0 0.0
2017-Sep-09 04:30N 37°56' E 023°38'0 0.9
2017-Sep-09 04:00N 37°56' E 023°38'1 3.0
2017-Sep-09 03:30N 37°55' E 023°37'1 2.5
2017-Sep-09 03:00N 37°54' E 023°37'3 5.7
2017-Sep-09 02:30N 37°51' E 023°39'3 6.4
2017-Sep-09 02:00N 37°49' E 023°40'3 6.6
2017-Sep-09 01:30N 37°45' E 023°42'3 6.3
2017-Sep-09 01:00N 37°43' E 023°44'3 6.2
2017-Sep-09 00:30N 37°40' E 023°45'4 6.2
2017-Sep-08 23:53N 37°36' E 023°46'8 6.0
2017-Sep-08 22:32N 37°28' E 023°47'1 6.1
2017-Sep-08 22:19N 37°27' E 023°46'2 6.6
2017-Sep-08 22:00N 37°25' E 023°45'4 7.5
2017-Sep-08 21:30N 37°22' E 023°42'4 7.1
2017-Sep-08 21:00N 37°19' E 023°39'4 7.6
2017-Sep-08 20:30N 37°16' E 023°36'4 7.8
2017-Sep-08 20:00N 37°13' E 023°33'4 7.7
2017-Sep-08 19:29N 37°10' E 023°30'  
Track history (hours):
 
Tides and Currents Weather Stations Pressure Air Temp Water Temp Dewpoint Dewpoint Depression Visibility Wind Speed Wind Dir Waves Ship Positions

Wind Star

Operator: Holland America Line

Last reported at 2017-Sep-18 18:34 UTC. Time now 2017-Sep-22 06:36 UTC.
Position N 37°42' E 025°47'.

Length 134 m; draft 4.1 m.

Type: Ship. MMSI: 309163000.

Date/timePositionNaut miles runAvg speedWind from/ knotsBaromVisibWave heightAir tempDewpointWater temp
2017-Sep-18 18:34N 37°42' E 025°47'1 8.8
2017-Sep-18 18:28N 37°41' E 025°46'4 8.5
2017-Sep-18 18:00N 37°39' E 025°41'4 8.1
2017-Sep-18 17:31N 37°38' E 025°37'4 8.0
2017-Sep-18 17:00N 37°36' E 025°32'4 7.8
2017-Sep-18 16:31N 37°35' E 025°28'4 7.8
2017-Sep-18 16:00N 37°33' E 025°23'4 7.6
2017-Sep-18 15:30N 37°31' E 025°19'3 6.8
2017-Sep-18 15:00N 37°27' E 025°19'1 1.7
2017-Sep-18 14:30N 37°27' E 025°19'0 0.0
2017-Sep-18 13:58N 37°27' E 025°19'0 0.0
2017-Sep-18 13:28N 37°27' E 025°19'0 0.0
2017-Sep-18 12:58N 37°27' E 025°19'0 0.0
2017-Sep-18 12:19N 37°27' E 025°19'0 0.0
2017-Sep-18 11:58N 37°27' E 025°19'0 0.0
2017-Sep-18 11:25N 37°27' E 025°19'0 0.0
2017-Sep-18 10:55N 37°27' E 025°19'0 0.0
2017-Sep-18 10:25N 37°27' E 025°19'0 0.0
2017-Sep-18 09:58N 37°27' E 025°19'0 0.0
2017-Sep-18 09:28N 37°27' E 025°19'0 0.0
2017-Sep-18 08:55N 37°27' E 025°19'0 0.0
2017-Sep-18 08:28N 37°27' E 025°19'0 0.0
2017-Sep-18 07:58N 37°27' E 025°19'0 0.0
2017-Sep-18 07:28N 37°27' E 025°19'0 0.0
2017-Sep-18 06:55N 37°27' E 025°19'0 0.0
2017-Sep-18 06:19N 37°27' E 025°19'0 0.0
2017-Sep-18 05:58N 37°27' E 025°19'0 0.0
2017-Sep-18 05:28N 37°27' E 025°19'0 0.0
2017-Sep-18 04:58N 37°27' E 025°19'0 0.0
2017-Sep-18 04:26N 37°27' E 025°19'2 4.5
2017-Sep-18 04:00N 37°27' E 025°17'4 7.9
2017-Sep-18 03:30N 37°27' E 025°12'4 7.5
2017-Sep-18 03:00N 37°25' E 025°08'4 7.8
2017-Sep-18 02:30N 37°23' E 025°03'4 7.9
2017-Sep-18 02:00N 37°22' E 024°59'4 8.1
2017-Sep-18 01:30N 37°20' E 024°55'5 9.4
2017-Sep-18 01:00N 37°19' E 024°49'5110.3
2017-Sep-17 20:02N 37°11' E 023°45'110.4
2017-Sep-17 19:59N 37°11' E 023°45'510.4
2017-Sep-17 19:30N 37°11' E 023°38'710.4
2017-Sep-17 18:49N 37°10' E 023°30'8 0.4
2017-Sep-16 22:17N 37°09' E 023°20'2 7.2
2017-Sep-16 21:58N 37°09' E 023°22'5 7.8
2017-Sep-16 21:23N 37°09' E 023°28'3 8.1
2017-Sep-16 21:00N 37°10' E 023°32'4 7.9
2017-Sep-16 20:30N 37°13' E 023°35'4 7.6
2017-Sep-16 20:00N 37°16' E 023°38'4 7.7
2017-Sep-16 19:30N 37°19' E 023°41'4 7.6
2017-Sep-16 19:00N 37°23' E 023°42'4 7.6
2017-Sep-16 18:30N 37°27' E 023°42'4 7.6
2017-Sep-16 18:00N 37°31' E 023°42'5 7.5
2017-Sep-16 17:19N 37°36' E 023°42'2 7.5
2017-Sep-16 17:00N 37°38' E 023°42'4 7.1
2017-Sep-16 16:30N 37°41' E 023°40'4 7.2
2017-Sep-16 16:00N 37°45' E 023°39'4 7.1
2017-Sep-16 15:30N 37°48' E 023°38'3 6.7
2017-Sep-16 15:00N 37°51' E 023°37'3 6.6
2017-Sep-16 14:30N 37°55' E 023°37'2 3.9
2017-Sep-16 14:00N 37°56' E 023°38'0 0.0
2017-Sep-16 13:30N 37°56' E 023°38'0 0.0
2017-Sep-16 13:00N 37°56' E 023°38'0 0.0
2017-Sep-16 12:30N 37°56' E 023°38'0 0.0
2017-Sep-16 12:00N 37°56' E 023°38'0 0.0
2017-Sep-16 11:30N 37°56' E 023°38'0 0.0
2017-Sep-16 11:00N 37°56' E 023°38'0 0.0
2017-Sep-16 10:30N 37°56' E 023°38'0 0.0
2017-Sep-16 10:00N 37°56' E 023°38'0 0.0
2017-Sep-16 09:30N 37°56' E 023°38'0 0.0
2017-Sep-16 09:00N 37°56' E 023°38'0 0.0
2017-Sep-16 08:30N 37°56' E 023°38'0 0.0
2017-Sep-16 08:00N 37°56' E 023°38'0 0.0
2017-Sep-16 07:30N 37°56' E 023°38'0 0.0
2017-Sep-16 07:00N 37°56' E 023°38'0 0.0
2017-Sep-16 06:27N 37°56' E 023°38'0 0.0
2017-Sep-16 06:00N 37°56' E 023°38'0 0.0
2017-Sep-16 05:30N 37°56' E 023°38'0 0.0
2017-Sep-16 05:00N 37°56' E 023°38'0 0.0
2017-Sep-16 04:30N 37°56' E 023°38'0 0.0
2017-Sep-16 04:00N 37°56' E 023°38'1 1.6
2017-Sep-16 03:30N 37°56' E 023°37'2 4.4
2017-Sep-16 03:00N 37°54' E 023°37'3 6.7
2017-Sep-16 02:30N 37°51' E 023°39'3 6.3
2017-Sep-16 02:00N 37°48' E 023°40'3 6.5
2017-Sep-16 01:30N 37°45' E 023°42'3 6.3
2017-Sep-16 01:00N 37°42' E 023°44'3 6.0
2017-Sep-16 00:30N 37°40' E 023°45'3 6.1
2017-Sep-16 00:00N 37°37' E 023°46'3 6.3
2017-Sep-15 23:30N 37°33' E 023°46'3 6.1
2017-Sep-15 23:00N 37°30' E 023°47'6 6.6
2017-Sep-15 22:06N 37°25' E 023°44'1 6.6
2017-Sep-15 22:00N 37°24' E 023°44'3 6.8
2017-Sep-15 21:30N 37°21' E 023°41'3 6.5
2017-Sep-15 21:00N 37°19' E 023°39'3 6.7
2017-Sep-15 20:30N 37°16' E 023°36'3 6.7
2017-Sep-15 20:00N 37°13' E 023°34'3 6.7
2017-Sep-15 19:30N 37°11' E 023°31'5 7.4
2017-Sep-15 18:52N 37°07' E 023°28'35 2.4
2017-Sep-15 03:55N 36°35' E 023°45'6 7.7
2017-Sep-15 03:11N 36°32' E 023°51'1 8.5
2017-Sep-15 03:00N 36°31' E 023°53'  
2017-Sep-11 19:05N 37°43' E 025°50'2 8.4
2017-Sep-11 18:52N 37°42' E 025°48'3 8.1
2017-Sep-11 18:30N 37°41' E 025°45'4 7.9
2017-Sep-11 18:00N 37°39' E 025°40'4 8.1
2017-Sep-11 17:30N 37°38' E 025°36'4 8.3
2017-Sep-11 17:00N 37°36' E 025°31'4 8.5
2017-Sep-11 16:30N 37°34' E 025°26'4 8.4
2017-Sep-11 16:00N 37°32' E 025°21'4 7.8
2017-Sep-11 15:30N 37°30' E 025°17'3 5.8
2017-Sep-11 14:56N 37°27' E 025°19'0 0.0
2017-Sep-11 14:26N 37°27' E 025°19'0 0.0
2017-Sep-11 13:59N 37°27' E 025°19'0 0.0
2017-Sep-11 13:23N 37°27' E 025°19'0 0.0
2017-Sep-11 12:50N 37°27' E 025°19'0 0.0
2017-Sep-11 12:29N 37°27' E 025°19'0 0.0
2017-Sep-11 11:41N 37°27' E 025°19'0 0.1
2017-Sep-11 11:29N 37°27' E 025°19'0 0.0
2017-Sep-11 10:59N 37°27' E 025°19'0 0.0
2017-Sep-11 10:26N 37°27' E 025°19'0 0.0
2017-Sep-11 09:59N 37°27' E 025°19'0 0.0
2017-Sep-11 09:29N 37°27' E 025°19'0 0.0
2017-Sep-11 08:59N 37°27' E 025°19'0 0.0
2017-Sep-11 08:17N 37°27' E 025°19'0 0.0
2017-Sep-11 07:53N 37°27' E 025°19'0 0.0
2017-Sep-11 07:29N 37°27' E 025°19'0 0.0
2017-Sep-11 06:50N 37°27' E 025°19'0 0.0
2017-Sep-11 06:26N 37°27' E 025°19'0 0.0
2017-Sep-11 05:59N 37°27' E 025°19'0 0.0
2017-Sep-11 05:11N 37°27' E 025°19'0 0.1
2017-Sep-11 04:59N 37°27' E 025°19'0 0.0
2017-Sep-11 04:26N 37°27' E 025°19'0 0.1
2017-Sep-11 04:00N 37°27' E 025°19'3 5.8
2017-Sep-11 03:30N 37°27' E 025°15'4 7.9
2017-Sep-11 03:00N 37°27' E 025°11'4 7.8
2017-Sep-11 02:30N 37°25' E 025°06'4 7.8
2017-Sep-11 01:59N 37°23' E 025°02'4 7.4
2017-Sep-11 01:30N 37°21' E 024°58'4 7.4
2017-Sep-11 01:00N 37°19' E 024°54'4 7.9
2017-Sep-11 00:30N 37°19' E 024°49'7110.7
2017-Sep-10 17:52N 37°09' E 023°21'36 3.8
2017-Sep-10 08:22N 37°34' E 022°47'0 0.0
2017-Sep-10 07:16N 37°34' E 022°47'0 0.0
2017-Sep-10 06:40N 37°34' E 022°47'0 0.0
2017-Sep-10 06:22N 37°34' E 022°47'0 0.0
2017-Sep-10 04:58N 37°34' E 022°47'0 0.0
2017-Sep-10 04:16N 37°34' E 022°47'7 4.8
2017-Sep-10 02:50N 37°27' E 022°50'12 6.5
2017-Sep-10 00:58N 37°17' E 022°58'11 6.4
2017-Sep-09 23:16N 37°09' E 023°07'3 7.5
2017-Sep-09 22:50N 37°09' E 023°11'4 7.0
2017-Sep-09 22:16N 37°09' E 023°16'2 7.1
2017-Sep-09 22:00N 37°09' E 023°19'4 6.9
2017-Sep-09 21:28N 37°09' E 023°23'3 6.8
2017-Sep-09 21:00N 37°10' E 023°27'3 6.9
2017-Sep-09 20:30N 37°12' E 023°31'3 6.1
2017-Sep-09 19:56N 37°14' E 023°35'6 7.5
2017-Sep-09 19:11N 37°18' E 023°39'2 8.2
2017-Sep-09 18:58N 37°20' E 023°40'4 8.1
2017-Sep-09 18:30N 37°23' E 023°42'6 8.4
2017-Sep-09 17:47N 37°29' E 023°42'3 8.9
2017-Sep-09 17:30N 37°32' E 023°42'5 9.1
2017-Sep-09 17:00N 37°36' E 023°42'4 8.8
2017-Sep-09 16:30N 37°41' E 023°41'4 9.0
2017-Sep-09 16:00N 37°45' E 023°40'4 8.6
2017-Sep-09 15:30N 37°49' E 023°38'4 7.4
2017-Sep-09 15:00N 37°52' E 023°36'4 7.6
2017-Sep-09 14:31N 37°56' E 023°37'1 1.8
2017-Sep-09 14:00N 37°56' E 023°38'0 0.0
2017-Sep-09 13:30N 37°56' E 023°38'0 0.0
2017-Sep-09 13:00N 37°56' E 023°38'0 0.0
2017-Sep-09 12:30N 37°56' E 023°38'0 0.0
2017-Sep-09 12:00N 37°56' E 023°38'0 0.0
2017-Sep-09 11:30N 37°56' E 023°38'0 0.0
2017-Sep-09 11:00N 37°56' E 023°38'0 0.0
2017-Sep-09 10:30N 37°56' E 023°38'0 0.0
2017-Sep-09 10:00N 37°56' E 023°38'0 0.0
2017-Sep-09 09:30N 37°56' E 023°38'0 0.0
2017-Sep-09 09:00N 37°56' E 023°38'0 0.0
2017-Sep-09 08:30N 37°56' E 023°38'0 0.0
2017-Sep-09 08:00N 37°56' E 023°38'0 0.0
2017-Sep-09 07:30N 37°56' E 023°38'0 0.0
2017-Sep-09 07:00N 37°56' E 023°38'0 0.0
2017-Sep-09 06:30N 37°56' E 023°38'0 0.0
2017-Sep-09 06:00N 37°56' E 023°38'0 0.0
2017-Sep-09 05:30N 37°56' E 023°38'0 0.0
2017-Sep-09 05:00N 37°56' E 023°38'0 0.0
2017-Sep-09 04:30N 37°56' E 023°38'0 0.9
2017-Sep-09 04:00N 37°56' E 023°38'1 3.0
2017-Sep-09 03:30N 37°55' E 023°37'1 2.5
2017-Sep-09 03:00N 37°54' E 023°37'3 5.7
2017-Sep-09 02:30N 37°51' E 023°39'3 6.4
2017-Sep-09 02:00N 37°49' E 023°40'3 6.6
2017-Sep-09 01:30N 37°45' E 023°42'3 6.3
2017-Sep-09 01:00N 37°43' E 023°44'3 6.2
2017-Sep-09 00:30N 37°40' E 023°45'4 6.2
2017-Sep-08 23:53N 37°36' E 023°46'8 6.0
2017-Sep-08 22:32N 37°28' E 023°47'1 6.1
2017-Sep-08 22:19N 37°27' E 023°46'2 6.6
2017-Sep-08 22:00N 37°25' E 023°45'4 7.5
2017-Sep-08 21:30N 37°22' E 023°42'4 7.1
2017-Sep-08 21:00N 37°19' E 023°39'4 7.6
2017-Sep-08 20:30N 37°16' E 023°36'4 7.8
2017-Sep-08 20:00N 37°13' E 023°33'4 7.7
2017-Sep-08 19:29N 37°10' E 023°30'  

Dump ship's entire track history